sensor_id;sensor_type;location;lat;lon;timestamp;P1;durP1;ratioP1;P2;durP2;ratioP2
60908;SDS011;46780;48.128;-1.704;2023-07-13T00:02:24;10.98;;;2.80;;
60908;SDS011;46780;48.128;-1.704;2023-07-13T00:04:52;12.70;;;2.90;;
60908;SDS011;46780;48.128;-1.704;2023-07-13T00:07:18;9.20;;;3.15;;
60908;SDS011;46780;48.128;-1.704;2023-07-13T00:09:45;12.35;;;3.10;;
60908;SDS011;46780;48.128;-1.704;2023-07-13T00:12:21;12.05;;;3.00;;
60908;SDS011;46780;48.128;-1.704;2023-07-13T00:14:49;15.02;;;3.38;;
60908;SDS011;46780;48.128;-1.704;2023-07-13T00:17:16;12.75;;;3.40;;
60908;SDS011;46780;48.128;-1.704;2023-07-13T00:19:42;11.75;;;3.67;;
60908;SDS011;46780;48.128;-1.704;2023-07-13T00:22:10;12.65;;;3.47;;
60908;SDS011;46780;48.128;-1.704;2023-07-13T00:24:37;9.95;;;3.20;;
60908;SDS011;46780;48.128;-1.704;2023-07-13T00:27:03;12.35;;;3.20;;
60908;SDS011;46780;48.128;-1.704;2023-07-13T00:29:30;10.63;;;3.60;;
60908;SDS011;46780;48.128;-1.704;2023-07-13T00:31:56;10.23;;;3.30;;
60908;SDS011;46780;48.128;-1.704;2023-07-13T00:34:22;12.00;;;3.00;;
60908;SDS011;46780;48.128;-1.704;2023-07-13T00:36:49;10.20;;;2.88;;
60908;SDS011;46780;48.128;-1.704;2023-07-13T00:39:17;10.13;;;3.00;;
60908;SDS011;46780;48.128;-1.704;2023-07-13T00:41:43;10.40;;;3.20;;
60908;SDS011;46780;48.128;-1.704;2023-07-13T00:44:10;9.73;;;2.70;;
60908;SDS011;46780;48.128;-1.704;2023-07-13T00:46:40;9.98;;;2.80;;
60908;SDS011;46780;48.128;-1.704;2023-07-13T00:49:07;12.57;;;3.13;;
60908;SDS011;46780;48.128;-1.704;2023-07-13T00:51:37;13.45;;;3.03;;
60908;SDS011;46780;48.128;-1.704;2023-07-13T00:54:09;10.05;;;3.13;;
60908;SDS011;46780;48.128;-1.704;2023-07-13T00:56:41;12.90;;;3.05;;
60908;SDS011;46780;48.128;-1.704;2023-07-13T00:59:10;11.70;;;2.90;;
60908;SDS011;46780;48.128;-1.704;2023-07-13T01:01:39;10.48;;;3.00;;
60908;SDS011;46780;48.128;-1.704;2023-07-13T01:04:05;13.55;;;3.00;;
60908;SDS011;46780;48.128;-1.704;2023-07-13T01:06:32;11.10;;;3.00;;
60908;SDS011;46780;48.128;-1.704;2023-07-13T01:08:58;9.25;;;2.85;;
60908;SDS011;46780;48.128;-1.704;2023-07-13T01:11:25;7.03;;;2.60;;
60908;SDS011;46780;48.128;-1.704;2023-07-13T01:13:54;11.45;;;3.00;;
60908;SDS011;46780;48.128;-1.704;2023-07-13T01:16:22;13.68;;;3.03;;
60908;SDS011;46780;48.128;-1.704;2023-07-13T01:18:51;7.10;;;2.60;;
60908;SDS011;46780;48.128;-1.704;2023-07-13T01:21:19;10.50;;;2.95;;
60908;SDS011;46780;48.128;-1.704;2023-07-13T01:23:45;10.45;;;2.80;;
60908;SDS011;46780;48.128;-1.704;2023-07-13T01:26:12;12.02;;;2.90;;
60908;SDS011;46780;48.128;-1.704;2023-07-13T01:28:38;8.70;;;2.90;;
60908;SDS011;46780;48.128;-1.704;2023-07-13T01:31:05;10.98;;;2.80;;
60908;SDS011;46780;48.128;-1.704;2023-07-13T01:33:31;14.45;;;3.22;;
60908;SDS011;46780;48.128;-1.704;2023-07-13T01:35:58;10.52;;;3.08;;
60908;SDS011;46780;48.128;-1.704;2023-07-13T01:38:26;12.98;;;3.13;;
60908;SDS011;46780;48.128;-1.704;2023-07-13T01:40:52;8.10;;;2.50;;
60908;SDS011;46780;48.128;-1.704;2023-07-13T01:43:19;9.35;;;2.80;;
60908;SDS011;46780;48.128;-1.704;2023-07-13T01:45:46;8.55;;;2.75;;
60908;SDS011;46780;48.128;-1.704;2023-07-13T01:48:13;11.70;;;3.03;;
60908;SDS011;46780;48.128;-1.704;2023-07-13T01:50:39;11.40;;;2.90;;
60908;SDS011;46780;48.128;-1.704;2023-07-13T01:53:06;10.90;;;3.00;;
60908;SDS011;46780;48.128;-1.704;2023-07-13T01:55:34;10.00;;;3.05;;
60908;SDS011;46780;48.128;-1.704;2023-07-13T01:58:01;10.23;;;2.78;;
60908;SDS011;46780;48.128;-1.704;2023-07-13T02:00:28;12.82;;;3.00;;
60908;SDS011;46780;48.128;-1.704;2023-07-13T02:02:54;8.98;;;2.97;;
60908;SDS011;46780;48.128;-1.704;2023-07-13T02:05:21;11.02;;;2.90;;
60908;SDS011;46780;48.128;-1.704;2023-07-13T02:07:47;11.30;;;2.83;;
60908;SDS011;46780;48.128;-1.704;2023-07-13T02:10:14;13.07;;;3.30;;
60908;SDS011;46780;48.128;-1.704;2023-07-13T02:12:42;13.57;;;3.15;;
60908;SDS011;46780;48.128;-1.704;2023-07-13T02:15:09;11.38;;;2.83;;
60908;SDS011;46780;48.128;-1.704;2023-07-13T02:17:36;13.02;;;3.13;;
60908;SDS011;46780;48.128;-1.704;2023-07-13T02:20:03;12.63;;;3.08;;
60908;SDS011;46780;48.128;-1.704;2023-07-13T02:22:30;13.70;;;3.20;;
60908;SDS011;46780;48.128;-1.704;2023-07-13T02:24:57;11.88;;;3.25;;
60908;SDS011;46780;48.128;-1.704;2023-07-13T02:27:24;12.02;;;3.35;;
60908;SDS011;46780;48.128;-1.704;2023-07-13T02:29:52;9.57;;;2.67;;
60908;SDS011;46780;48.128;-1.704;2023-07-13T02:32:18;12.35;;;3.10;;
60908;SDS011;46780;48.128;-1.704;2023-07-13T02:34:45;13.05;;;3.35;;
60908;SDS011;46780;48.128;-1.704;2023-07-13T02:37:11;11.95;;;3.22;;
60908;SDS011;46780;48.128;-1.704;2023-07-13T02:39:37;9.85;;;2.70;;
60908;SDS011;46780;48.128;-1.704;2023-07-13T02:42:05;12.35;;;3.17;;
60908;SDS011;46780;48.128;-1.704;2023-07-13T02:44:34;11.57;;;3.40;;
60908;SDS011;46780;48.128;-1.704;2023-07-13T02:47:07;15.60;;;3.10;;
60908;SDS011;46780;48.128;-1.704;2023-07-13T02:49:36;11.23;;;2.92;;
60908;SDS011;46780;48.128;-1.704;2023-07-13T02:52:03;8.32;;;2.88;;
60908;SDS011;46780;48.128;-1.704;2023-07-13T02:54:30;13.70;;;3.20;;
60908;SDS011;46780;48.128;-1.704;2023-07-13T02:56:56;11.80;;;3.00;;
60908;SDS011;46780;48.128;-1.704;2023-07-13T02:59:23;13.30;;;3.30;;
60908;SDS011;46780;48.128;-1.704;2023-07-13T03:01:50;12.75;;;3.03;;
60908;SDS011;46780;48.128;-1.704;2023-07-13T03:04:17;10.98;;;3.10;;
60908;SDS011;46780;48.128;-1.704;2023-07-13T03:06:44;14.70;;;3.40;;
60908;SDS011;46780;48.128;-1.704;2023-07-13T03:09:10;10.48;;;2.75;;
60908;SDS011;46780;48.128;-1.704;2023-07-13T03:11:37;13.48;;;3.08;;
60908;SDS011;46780;48.128;-1.704;2023-07-13T03:14:03;8.80;;;2.70;;
60908;SDS011;46780;48.128;-1.704;2023-07-13T03:16:30;13.15;;;3.20;;
60908;SDS011;46780;48.128;-1.704;2023-07-13T03:18:56;12.88;;;3.25;;
60908;SDS011;46780;48.128;-1.704;2023-07-13T03:21:24;12.15;;;3.20;;
60908;SDS011;46780;48.128;-1.704;2023-07-13T03:23:51;13.18;;;3.40;;
60908;SDS011;46780;48.128;-1.704;2023-07-13T03:26:18;14.95;;;3.05;;
60908;SDS011;46780;48.128;-1.704;2023-07-13T03:28:45;13.88;;;3.30;;
60908;SDS011;46780;48.128;-1.704;2023-07-13T03:31:13;16.10;;;3.90;;
60908;SDS011;46780;48.128;-1.704;2023-07-13T03:33:41;16.42;;;3.13;;
60908;SDS011;46780;48.128;-1.704;2023-07-13T03:36:11;11.63;;;3.03;;
60908;SDS011;46780;48.128;-1.704;2023-07-13T03:38:40;15.30;;;2.92;;
60908;SDS011;46780;48.128;-1.704;2023-07-13T03:41:07;12.30;;;3.20;;
60908;SDS011;46780;48.128;-1.704;2023-07-13T03:43:33;14.60;;;3.30;;
60908;SDS011;46780;48.128;-1.704;2023-07-13T03:46:00;12.85;;;3.10;;
60908;SDS011;46780;48.128;-1.704;2023-07-13T03:48:26;11.73;;;3.10;;
60908;SDS011;46780;48.128;-1.704;2023-07-13T03:50:53;14.07;;;3.00;;
60908;SDS011;46780;48.128;-1.704;2023-07-13T03:53:19;12.23;;;3.30;;
60908;SDS011;46780;48.128;-1.704;2023-07-13T03:55:47;12.05;;;3.10;;
60908;SDS011;46780;48.128;-1.704;2023-07-13T03:58:23;15.13;;;3.50;;
60908;SDS011;46780;48.128;-1.704;2023-07-13T04:00:51;15.18;;;3.58;;
60908;SDS011;46780;48.128;-1.704;2023-07-13T04:03:18;15.45;;;3.22;;
60908;SDS011;46780;48.128;-1.704;2023-07-13T04:05:45;11.20;;;3.10;;
60908;SDS011;46780;48.128;-1.704;2023-07-13T04:08:11;13.18;;;3.40;;
60908;SDS011;46780;48.128;-1.704;2023-07-13T04:10:37;12.50;;;3.35;;
60908;SDS011;46780;48.128;-1.704;2023-07-13T04:13:06;14.27;;;3.25;;
60908;SDS011;46780;48.128;-1.704;2023-07-13T04:15:32;16.77;;;3.67;;
60908;SDS011;46780;48.128;-1.704;2023-07-13T04:17:59;14.32;;;3.50;;
60908;SDS011;46780;48.128;-1.704;2023-07-13T04:20:25;11.80;;;3.40;;
60908;SDS011;46780;48.128;-1.704;2023-07-13T04:22:52;16.30;;;3.30;;
60908;SDS011;46780;48.128;-1.704;2023-07-13T04:25:18;20.17;;;3.75;;
60908;SDS011;46780;48.128;-1.704;2023-07-13T04:27:46;11.95;;;3.10;;
60908;SDS011;46780;48.128;-1.704;2023-07-13T04:30:14;14.93;;;3.60;;
60908;SDS011;46780;48.128;-1.704;2023-07-13T04:32:40;11.30;;;2.92;;
60908;SDS011;46780;48.128;-1.704;2023-07-13T04:35:07;15.10;;;3.22;;
60908;SDS011;46780;48.128;-1.704;2023-07-13T04:37:34;13.63;;;3.40;;
60908;SDS011;46780;48.128;-1.704;2023-07-13T04:40:00;12.43;;;3.38;;
60908;SDS011;46780;48.128;-1.704;2023-07-13T04:42:27;15.15;;;3.55;;
60908;SDS011;46780;48.128;-1.704;2023-07-13T04:44:53;12.15;;;3.30;;
60908;SDS011;46780;48.128;-1.704;2023-07-13T04:47:21;13.27;;;3.40;;
60908;SDS011;46780;48.128;-1.704;2023-07-13T04:49:47;13.25;;;3.70;;
60908;SDS011;46780;48.128;-1.704;2023-07-13T04:52:14;12.07;;;3.33;;
60908;SDS011;46780;48.128;-1.704;2023-07-13T04:54:40;16.52;;;3.60;;
60908;SDS011;46780;48.128;-1.704;2023-07-13T04:57:07;14.95;;;3.60;;
60908;SDS011;46780;48.128;-1.704;2023-07-13T04:59:33;14.27;;;3.78;;
60908;SDS011;46780;48.128;-1.704;2023-07-13T05:02:00;17.77;;;3.67;;
60908;SDS011;46780;48.128;-1.704;2023-07-13T05:04:28;13.88;;;3.40;;
60908;SDS011;46780;48.128;-1.704;2023-07-13T05:06:54;15.57;;;3.50;;
60908;SDS011;46780;48.128;-1.704;2023-07-13T05:09:21;13.45;;;3.53;;
60908;SDS011;46780;48.128;-1.704;2023-07-13T05:11:48;11.63;;;3.47;;
60908;SDS011;46780;48.128;-1.704;2023-07-13T05:14:14;16.70;;;3.72;;
60908;SDS011;46780;48.128;-1.704;2023-07-13T05:16:41;13.63;;;3.42;;
60908;SDS011;46780;48.128;-1.704;2023-07-13T05:19:07;13.30;;;3.60;;
60908;SDS011;46780;48.128;-1.704;2023-07-13T05:21:35;18.58;;;4.00;;
60908;SDS011;46780;48.128;-1.704;2023-07-13T05:24:02;12.90;;;3.78;;
60908;SDS011;46780;48.128;-1.704;2023-07-13T05:26:28;16.60;;;4.10;;
60908;SDS011;46780;48.128;-1.704;2023-07-13T05:28:55;17.85;;;4.00;;
60908;SDS011;46780;48.128;-1.704;2023-07-13T05:31:21;11.57;;;3.67;;
60908;SDS011;46780;48.128;-1.704;2023-07-13T05:33:48;15.15;;;3.72;;
60908;SDS011;46780;48.128;-1.704;2023-07-13T05:36:14;13.85;;;3.88;;
60908;SDS011;46780;48.128;-1.704;2023-07-13T05:38:42;15.52;;;3.80;;
60908;SDS011;46780;48.128;-1.704;2023-07-13T05:41:09;12.25;;;3.60;;
60908;SDS011;46780;48.128;-1.704;2023-07-13T05:43:35;12.20;;;3.53;;
60908;SDS011;46780;48.128;-1.704;2023-07-13T05:46:02;14.73;;;3.47;;
60908;SDS011;46780;48.128;-1.704;2023-07-13T05:48:28;9.55;;;3.38;;
60908;SDS011;46780;48.128;-1.704;2023-07-13T05:50:55;14.13;;;3.80;;
60908;SDS011;46780;48.128;-1.704;2023-07-13T05:53:21;12.90;;;3.55;;
60908;SDS011;46780;48.128;-1.704;2023-07-13T05:55:49;12.88;;;3.92;;
60908;SDS011;46780;48.128;-1.704;2023-07-13T05:58:16;16.48;;;4.00;;
60908;SDS011;46780;48.128;-1.704;2023-07-13T06:00:43;15.68;;;3.88;;
60908;SDS011;46780;48.128;-1.704;2023-07-13T06:03:10;15.38;;;3.53;;
60908;SDS011;46780;48.128;-1.704;2023-07-13T06:05:36;12.30;;;3.50;;
60908;SDS011;46780;48.128;-1.704;2023-07-13T06:08:04;15.57;;;3.83;;
60908;SDS011;46780;48.128;-1.704;2023-07-13T06:10:32;17.77;;;3.88;;
60908;SDS011;46780;48.128;-1.704;2023-07-13T06:13:00;13.32;;;3.53;;
60908;SDS011;46780;48.128;-1.704;2023-07-13T06:15:26;15.02;;;3.85;;
60908;SDS011;46780;48.128;-1.704;2023-07-13T06:17:53;13.88;;;3.70;;
60908;SDS011;46780;48.128;-1.704;2023-07-13T06:20:19;14.48;;;3.70;;
60908;SDS011;46780;48.128;-1.704;2023-07-13T06:22:46;13.88;;;3.67;;
60908;SDS011;46780;48.128;-1.704;2023-07-13T06:25:12;17.02;;;4.80;;
60908;SDS011;46780;48.128;-1.704;2023-07-13T06:27:39;12.80;;;3.58;;
60908;SDS011;46780;48.128;-1.704;2023-07-13T06:30:07;13.43;;;3.42;;
60908;SDS011;46780;48.128;-1.704;2023-07-13T06:32:34;18.42;;;7.30;;
60908;SDS011;46780;48.128;-1.704;2023-07-13T06:35:01;24.77;;;10.02;;
60908;SDS011;46780;48.128;-1.704;2023-07-13T06:37:27;16.40;;;6.95;;
60908;SDS011;46780;48.128;-1.704;2023-07-13T06:39:54;19.50;;;6.28;;
60908;SDS011;46780;48.128;-1.704;2023-07-13T06:42:20;13.30;;;4.00;;
60908;SDS011;46780;48.128;-1.704;2023-07-13T06:44:47;14.75;;;4.60;;
60908;SDS011;46780;48.128;-1.704;2023-07-13T06:47:14;11.65;;;3.72;;
60908;SDS011;46780;48.128;-1.704;2023-07-13T06:49:41;15.55;;;5.18;;
60908;SDS011;46780;48.128;-1.704;2023-07-13T06:52:07;13.68;;;4.07;;
60908;SDS011;46780;48.128;-1.704;2023-07-13T06:54:34;15.30;;;4.30;;
60908;SDS011;46780;48.128;-1.704;2023-07-13T06:57:00;15.32;;;4.32;;
60908;SDS011;46780;48.128;-1.704;2023-07-13T06:59:26;11.82;;;3.20;;
60908;SDS011;46780;48.128;-1.704;2023-07-13T07:01:53;18.08;;;3.75;;
60908;SDS011;46780;48.128;-1.704;2023-07-13T07:04:21;12.35;;;3.40;;
60908;SDS011;46780;48.128;-1.704;2023-07-13T07:06:47;11.63;;;3.40;;
60908;SDS011;46780;48.128;-1.704;2023-07-13T07:09:13;13.77;;;3.58;;
60908;SDS011;46780;48.128;-1.704;2023-07-13T07:11:40;12.85;;;3.65;;
60908;SDS011;46780;48.128;-1.704;2023-07-13T07:14:07;12.52;;;3.33;;
60908;SDS011;46780;48.128;-1.704;2023-07-13T07:16:33;12.73;;;3.60;;
60908;SDS011;46780;48.128;-1.704;2023-07-13T07:19:00;15.45;;;3.28;;
60908;SDS011;46780;48.128;-1.704;2023-07-13T07:21:28;13.82;;;3.45;;
60908;SDS011;46780;48.128;-1.704;2023-07-13T07:23:54;16.33;;;3.22;;
60908;SDS011;46780;48.128;-1.704;2023-07-13T07:26:21;12.43;;;3.28;;
60908;SDS011;46780;48.128;-1.704;2023-07-13T07:28:47;14.23;;;3.33;;
60908;SDS011;46780;48.128;-1.704;2023-07-13T07:31:14;13.32;;;3.42;;
60908;SDS011;46780;48.128;-1.704;2023-07-13T07:33:40;12.23;;;3.40;;
60908;SDS011;46780;48.128;-1.704;2023-07-13T07:36:07;14.63;;;3.22;;
60908;SDS011;46780;48.128;-1.704;2023-07-13T07:38:34;15.13;;;3.60;;
60908;SDS011;46780;48.128;-1.704;2023-07-13T07:41:02;14.07;;;3.53;;
60908;SDS011;46780;48.128;-1.704;2023-07-13T07:43:29;12.38;;;3.15;;
60908;SDS011;46780;48.128;-1.704;2023-07-13T07:45:56;12.82;;;3.10;;
60908;SDS011;46780;48.128;-1.704;2023-07-13T07:48:22;12.85;;;3.03;;
60908;SDS011;46780;48.128;-1.704;2023-07-13T07:50:49;13.05;;;3.05;;
60908;SDS011;46780;48.128;-1.704;2023-07-13T07:53:15;8.77;;;2.80;;
60908;SDS011;46780;48.128;-1.704;2023-07-13T07:55:43;11.40;;;2.90;;
60908;SDS011;46780;48.128;-1.704;2023-07-13T07:58:09;14.82;;;3.17;;
60908;SDS011;46780;48.128;-1.704;2023-07-13T08:00:36;9.60;;;2.70;;
60908;SDS011;46780;48.128;-1.704;2023-07-13T08:03:02;12.20;;;2.60;;
60908;SDS011;46780;48.128;-1.704;2023-07-13T08:05:29;10.73;;;3.00;;
60908;SDS011;46780;48.128;-1.704;2023-07-13T08:07:55;12.95;;;2.90;;
60908;SDS011;46780;48.128;-1.704;2023-07-13T08:10:22;8.18;;;2.78;;
60908;SDS011;46780;48.128;-1.704;2023-07-13T08:12:50;10.15;;;2.78;;
60908;SDS011;46780;48.128;-1.704;2023-07-13T08:15:16;11.60;;;2.80;;
60908;SDS011;46780;48.128;-1.704;2023-07-13T08:17:43;11.27;;;2.30;;
60908;SDS011;46780;48.128;-1.704;2023-07-13T08:20:10;9.77;;;2.38;;
60908;SDS011;46780;48.128;-1.704;2023-07-13T08:22:36;7.43;;;2.40;;
60908;SDS011;46780;48.128;-1.704;2023-07-13T08:25:03;11.00;;;2.53;;
60908;SDS011;46780;48.128;-1.704;2023-07-13T08:27:30;10.50;;;2.72;;
60908;SDS011;46780;48.128;-1.704;2023-07-13T08:29:58;11.45;;;2.72;;
60908;SDS011;46780;48.128;-1.704;2023-07-13T08:32:24;7.95;;;2.50;;
60908;SDS011;46780;48.128;-1.704;2023-07-13T08:34:51;10.80;;;2.58;;
60908;SDS011;46780;48.128;-1.704;2023-07-13T08:37:18;7.55;;;2.50;;
60908;SDS011;46780;48.128;-1.704;2023-07-13T08:39:44;9.73;;;2.47;;
60908;SDS011;46780;48.128;-1.704;2023-07-13T08:42:12;9.50;;;2.42;;
60908;SDS011;46780;48.128;-1.704;2023-07-13T08:44:48;10.95;;;2.42;;
60908;SDS011;46780;48.128;-1.704;2023-07-13T08:47:22;12.30;;;2.60;;
60908;SDS011;46780;48.128;-1.704;2023-07-13T08:49:50;10.55;;;2.42;;
60908;SDS011;46780;48.128;-1.704;2023-07-13T08:52:21;10.35;;;2.40;;
60908;SDS011;46780;48.128;-1.704;2023-07-13T08:54:54;9.07;;;2.40;;
60908;SDS011;46780;48.128;-1.704;2023-07-13T08:57:24;9.98;;;2.78;;
60908;SDS011;46780;48.128;-1.704;2023-07-13T08:59:55;10.80;;;2.85;;
60908;SDS011;46780;48.128;-1.704;2023-07-13T09:02:27;8.63;;;2.20;;
60908;SDS011;46780;48.128;-1.704;2023-07-13T09:05:01;8.07;;;2.30;;
60908;SDS011;46780;48.128;-1.704;2023-07-13T09:07:33;10.45;;;2.33;;
60908;SDS011;46780;48.128;-1.704;2023-07-13T09:10:10;5.97;;;2.10;;
60908;SDS011;46780;48.128;-1.704;2023-07-13T09:12:45;5.80;;;2.13;;
60908;SDS011;46780;48.128;-1.704;2023-07-13T09:15:24;8.73;;;2.28;;
60908;SDS011;46780;48.128;-1.704;2023-07-13T09:17:56;9.50;;;2.17;;
60908;SDS011;46780;48.128;-1.704;2023-07-13T09:20:28;8.93;;;2.30;;
60908;SDS011;46780;48.128;-1.704;2023-07-13T09:22:57;9.75;;;2.42;;
60908;SDS011;46780;48.128;-1.704;2023-07-13T09:25:29;10.65;;;2.50;;
60908;SDS011;46780;48.128;-1.704;2023-07-13T09:27:58;6.23;;;1.90;;
60908;SDS011;46780;48.128;-1.704;2023-07-13T09:30:33;12.35;;;2.33;;
60908;SDS011;46780;48.128;-1.704;2023-07-13T09:33:06;6.82;;;2.17;;
60908;SDS011;46780;48.128;-1.704;2023-07-13T09:35:34;8.57;;;2.22;;
60908;SDS011;46780;48.128;-1.704;2023-07-13T09:38:04;7.57;;;2.30;;
60908;SDS011;46780;48.128;-1.704;2023-07-13T09:40:40;8.13;;;2.30;;
60908;SDS011;46780;48.128;-1.704;2023-07-13T09:43:23;7.10;;;2.28;;
60908;SDS011;46780;48.128;-1.704;2023-07-13T09:45:50;11.43;;;2.50;;
60908;SDS011;46780;48.128;-1.704;2023-07-13T09:48:19;8.65;;;2.40;;
60908;SDS011;46780;48.128;-1.704;2023-07-13T09:50:46;8.65;;;2.58;;
60908;SDS011;46780;48.128;-1.704;2023-07-13T09:53:13;8.02;;;2.28;;
60908;SDS011;46780;48.128;-1.704;2023-07-13T09:55:41;7.63;;;2.30;;
60908;SDS011;46780;48.128;-1.704;2023-07-13T09:58:10;7.78;;;2.50;;
60908;SDS011;46780;48.128;-1.704;2023-07-13T10:00:39;9.32;;;2.33;;
60908;SDS011;46780;48.128;-1.704;2023-07-13T10:03:14;6.18;;;2.30;;
60908;SDS011;46780;48.128;-1.704;2023-07-13T10:05:45;10.60;;;2.58;;
60908;SDS011;46780;48.128;-1.704;2023-07-13T10:08:20;7.00;;;2.47;;
60908;SDS011;46780;48.128;-1.704;2023-07-13T10:10:52;7.72;;;2.40;;
60908;SDS011;46780;48.128;-1.704;2023-07-13T10:13:26;7.25;;;2.15;;
60908;SDS011;46780;48.128;-1.704;2023-07-13T10:15:58;7.50;;;2.10;;
60908;SDS011;46780;48.128;-1.704;2023-07-13T10:18:26;8.30;;;2.40;;
60908;SDS011;46780;48.128;-1.704;2023-07-13T10:20:55;8.25;;;2.35;;
60908;SDS011;46780;48.128;-1.704;2023-07-13T10:23:35;8.10;;;2.35;;
60908;SDS011;46780;48.128;-1.704;2023-07-13T10:26:01;7.82;;;2.10;;
60908;SDS011;46780;48.128;-1.704;2023-07-13T10:28:35;7.28;;;2.50;;
60908;SDS011;46780;48.128;-1.704;2023-07-13T10:31:04;6.57;;;2.30;;
60908;SDS011;46780;48.128;-1.704;2023-07-13T10:33:34;8.68;;;2.50;;
60908;SDS011;46780;48.128;-1.704;2023-07-13T10:36:07;6.93;;;2.30;;
60908;SDS011;46780;48.128;-1.704;2023-07-13T10:38:45;7.20;;;2.45;;
60908;SDS011;46780;48.128;-1.704;2023-07-13T10:41:15;7.60;;;2.50;;
60908;SDS011;46780;48.128;-1.704;2023-07-13T10:43:45;9.18;;;2.80;;
60908;SDS011;46780;48.128;-1.704;2023-07-13T10:46:14;6.28;;;2.30;;
60908;SDS011;46780;48.128;-1.704;2023-07-13T10:48:43;7.03;;;2.30;;
60908;SDS011;46780;48.128;-1.704;2023-07-13T10:51:14;6.97;;;2.28;;
60908;SDS011;46780;48.128;-1.704;2023-07-13T10:53:44;7.75;;;2.38;;
60908;SDS011;46780;48.128;-1.704;2023-07-13T10:56:18;7.38;;;2.30;;
60908;SDS011;46780;48.128;-1.704;2023-07-13T10:59:00;7.82;;;2.17;;
60908;SDS011;46780;48.128;-1.704;2023-07-13T11:01:46;9.00;;;2.67;;
60908;SDS011;46780;48.128;-1.704;2023-07-13T11:04:18;6.60;;;2.40;;
60908;SDS011;46780;48.128;-1.704;2023-07-13T11:06:48;8.38;;;2.17;;
60908;SDS011;46780;48.128;-1.704;2023-07-13T11:09:19;6.53;;;2.38;;
60908;SDS011;46780;48.128;-1.704;2023-07-13T11:11:58;7.95;;;2.83;;
60908;SDS011;46780;48.128;-1.704;2023-07-13T11:14:26;9.35;;;2.83;;
60908;SDS011;46780;48.128;-1.704;2023-07-13T11:16:55;8.00;;;2.70;;
60908;SDS011;46780;48.128;-1.704;2023-07-13T11:19:37;6.78;;;2.60;;
60908;SDS011;46780;48.128;-1.704;2023-07-13T11:22:20;7.18;;;2.40;;
60908;SDS011;46780;48.128;-1.704;2023-07-13T11:24:50;7.47;;;2.60;;
60908;SDS011;46780;48.128;-1.704;2023-07-13T11:27:22;7.57;;;2.50;;
60908;SDS011;46780;48.128;-1.704;2023-07-13T11:30:13;6.72;;;2.33;;
60908;SDS011;46780;48.128;-1.704;2023-07-13T11:32:50;7.13;;;2.42;;
60908;SDS011;46780;48.128;-1.704;2023-07-13T11:35:28;13.10;;;2.60;;
60908;SDS011;46780;48.128;-1.704;2023-07-13T11:37:57;7.28;;;2.50;;
60908;SDS011;46780;48.128;-1.704;2023-07-13T11:40:24;8.15;;;2.63;;
60908;SDS011;46780;48.128;-1.704;2023-07-13T11:42:58;7.60;;;2.53;;
60908;SDS011;46780;48.128;-1.704;2023-07-13T11:45:25;6.88;;;2.45;;
60908;SDS011;46780;48.128;-1.704;2023-07-13T11:47:51;7.60;;;2.60;;
60908;SDS011;46780;48.128;-1.704;2023-07-13T11:50:18;8.25;;;2.60;;
60908;SDS011;46780;48.128;-1.704;2023-07-13T11:52:45;6.85;;;2.35;;
60908;SDS011;46780;48.128;-1.704;2023-07-13T11:55:15;6.90;;;2.30;;
60908;SDS011;46780;48.128;-1.704;2023-07-13T11:57:44;7.82;;;2.40;;
60908;SDS011;46780;48.128;-1.704;2023-07-13T12:00:15;7.25;;;2.40;;
60908;SDS011;46780;48.128;-1.704;2023-07-13T12:02:45;7.88;;;2.40;;
60908;SDS011;46780;48.128;-1.704;2023-07-13T12:05:14;10.50;;;2.38;;
60908;SDS011;46780;48.128;-1.704;2023-07-13T12:07:42;9.77;;;2.40;;
60908;SDS011;46780;48.128;-1.704;2023-07-13T12:10:15;8.55;;;2.40;;
60908;SDS011;46780;48.128;-1.704;2023-07-13T12:12:47;13.07;;;2.58;;
60908;SDS011;46780;48.128;-1.704;2023-07-13T12:15:14;8.55;;;2.47;;
60908;SDS011;46780;48.128;-1.704;2023-07-13T12:17:41;8.10;;;2.60;;
60908;SDS011;46780;48.128;-1.704;2023-07-13T12:20:13;6.13;;;2.50;;
60908;SDS011;46780;48.128;-1.704;2023-07-13T12:22:49;9.43;;;2.67;;
60908;SDS011;46780;48.128;-1.704;2023-07-13T12:25:18;5.95;;;2.42;;
60908;SDS011;46780;48.128;-1.704;2023-07-13T12:27:46;6.40;;;2.40;;
60908;SDS011;46780;48.128;-1.704;2023-07-13T12:30:24;6.82;;;2.35;;
60908;SDS011;46780;48.128;-1.704;2023-07-13T12:32:56;8.88;;;2.33;;
60908;SDS011;46780;48.128;-1.704;2023-07-13T12:35:24;10.75;;;2.70;;
60908;SDS011;46780;48.128;-1.704;2023-07-13T12:37:52;8.80;;;2.42;;
60908;SDS011;46780;48.128;-1.704;2023-07-13T12:40:21;7.20;;;2.70;;
60908;SDS011;46780;48.128;-1.704;2023-07-13T12:42:58;12.18;;;2.90;;
60908;SDS011;46780;48.128;-1.704;2023-07-13T12:45:27;9.02;;;2.75;;
60908;SDS011;46780;48.128;-1.704;2023-07-13T12:47:54;6.63;;;2.50;;
60908;SDS011;46780;48.128;-1.704;2023-07-13T12:50:22;6.32;;;2.50;;
60908;SDS011;46780;48.128;-1.704;2023-07-13T12:52:54;7.90;;;2.53;;
60908;SDS011;46780;48.128;-1.704;2023-07-13T12:55:28;6.85;;;2.65;;
60908;SDS011;46780;48.128;-1.704;2023-07-13T12:57:55;10.02;;;2.70;;
60908;SDS011;46780;48.128;-1.704;2023-07-13T13:00:23;11.80;;;2.80;;
60908;SDS011;46780;48.128;-1.704;2023-07-13T13:02:52;8.43;;;2.28;;
60908;SDS011;46780;48.128;-1.704;2023-07-13T13:05:21;8.45;;;2.72;;
60908;SDS011;46780;48.128;-1.704;2023-07-13T13:07:50;8.70;;;2.65;;
60908;SDS011;46780;48.128;-1.704;2023-07-13T13:10:17;8.77;;;2.65;;
60908;SDS011;46780;48.128;-1.704;2023-07-13T13:12:45;9.32;;;2.83;;
60908;SDS011;46780;48.128;-1.704;2023-07-13T13:15:12;8.52;;;2.83;;
60908;SDS011;46780;48.128;-1.704;2023-07-13T13:17:39;8.82;;;2.70;;
60908;SDS011;46780;48.128;-1.704;2023-07-13T13:20:12;11.35;;;2.83;;
60908;SDS011;46780;48.128;-1.704;2023-07-13T13:22:41;9.07;;;3.00;;
60908;SDS011;46780;48.128;-1.704;2023-07-13T13:25:09;8.43;;;2.85;;
60908;SDS011;46780;48.128;-1.704;2023-07-13T13:27:36;10.48;;;2.80;;
60908;SDS011;46780;48.128;-1.704;2023-07-13T13:30:08;11.32;;;3.20;;
60908;SDS011;46780;48.128;-1.704;2023-07-13T13:32:37;11.43;;;2.95;;
60908;SDS011;46780;48.128;-1.704;2023-07-13T13:35:03;11.18;;;2.67;;
60908;SDS011;46780;48.128;-1.704;2023-07-13T13:37:30;6.65;;;2.60;;
60908;SDS011;46780;48.128;-1.704;2023-07-13T13:39:57;13.68;;;3.10;;
60908;SDS011;46780;48.128;-1.704;2023-07-13T13:42:23;10.93;;;2.67;;
60908;SDS011;46780;48.128;-1.704;2023-07-13T13:44:50;11.13;;;2.80;;
60908;SDS011;46780;48.128;-1.704;2023-07-13T13:47:30;7.72;;;2.50;;
60908;SDS011;46780;48.128;-1.704;2023-07-13T13:49:57;8.45;;;2.75;;
60908;SDS011;46780;48.128;-1.704;2023-07-13T13:52:24;8.20;;;2.58;;
60908;SDS011;46780;48.128;-1.704;2023-07-13T13:54:50;11.65;;;2.90;;
60908;SDS011;46780;48.128;-1.704;2023-07-13T13:57:17;8.52;;;2.67;;
60908;SDS011;46780;48.128;-1.704;2023-07-13T13:59:43;8.15;;;2.47;;
60908;SDS011;46780;48.128;-1.704;2023-07-13T14:02:16;10.63;;;2.95;;
60908;SDS011;46780;48.128;-1.704;2023-07-13T14:04:50;10.90;;;2.90;;
60908;SDS011;46780;48.128;-1.704;2023-07-13T14:07:20;6.15;;;2.50;;
60908;SDS011;46780;48.128;-1.704;2023-07-13T14:09:47;9.00;;;2.78;;
60908;SDS011;46780;48.128;-1.704;2023-07-13T14:12:13;10.82;;;2.80;;
60908;SDS011;46780;48.128;-1.704;2023-07-13T14:14:40;8.20;;;2.80;;
60908;SDS011;46780;48.128;-1.704;2023-07-13T14:17:09;7.82;;;2.83;;
60908;SDS011;46780;48.128;-1.704;2023-07-13T14:19:46;9.25;;;3.08;;
60908;SDS011;46780;48.128;-1.704;2023-07-13T14:22:13;8.63;;;2.72;;
60908;SDS011;46780;48.128;-1.704;2023-07-13T14:24:39;10.27;;;2.90;;
60908;SDS011;46780;48.128;-1.704;2023-07-13T14:27:07;9.48;;;2.78;;
60908;SDS011;46780;48.128;-1.704;2023-07-13T14:29:34;8.77;;;2.63;;
60908;SDS011;46780;48.128;-1.704;2023-07-13T14:32:01;9.85;;;3.15;;
60908;SDS011;46780;48.128;-1.704;2023-07-13T14:34:27;9.60;;;3.00;;